createdAt,value
2019-05-29T03:51:02.233Z,4.42
2019-05-29T03:53:34.273Z,2.80
2019-05-29T03:56:06.278Z,6.60
2019-05-29T03:58:37.834Z,5.40
2019-05-29T04:01:10.376Z,5.85
2019-05-29T04:03:42.143Z,3.40
2019-05-29T04:06:13.398Z,6.00
2019-05-29T04:08:44.615Z,4.47
2019-05-29T04:11:15.790Z,5.15
2019-05-29T04:13:47.268Z,4.87
2019-05-29T04:16:20.300Z,3.92
2019-05-29T04:18:52.258Z,2.98
2019-05-29T04:21:25.296Z,7.05
2019-05-29T04:23:57.887Z,5.90
2019-05-29T04:26:33.640Z,4.80
2019-05-29T04:29:05.519Z,4.00
2019-05-29T04:31:37.007Z,5.15
2019-05-29T04:34:09.349Z,5.62
2019-05-29T04:36:40.465Z,6.05
2019-05-29T04:39:11.658Z,5.35
2019-05-29T04:41:43.029Z,5.75
2019-05-29T04:44:14.180Z,5.85
2019-05-29T04:46:45.503Z,4.67
2019-05-29T04:49:20.193Z,3.60
2019-05-29T04:51:49.810Z,3.47
2019-05-29T04:54:20.909Z,6.30
2019-05-29T04:56:52.037Z,5.95
2019-05-29T04:59:23.219Z,3.45
2019-05-29T05:01:54.436Z,5.87
2019-05-29T05:04:25.548Z,7.20
2019-05-29T05:06:56.697Z,2.62
2019-05-29T05:09:27.860Z,5.35
2019-05-29T05:11:59.982Z,3.80
2019-05-29T05:14:31.572Z,6.85
2019-05-29T05:17:03.074Z,3.62
2019-05-29T05:19:35.938Z,6.95
2019-05-29T05:22:08.931Z,6.00
2019-05-29T05:24:43.511Z,6.15
2019-05-29T05:27:14.405Z,3.45
2019-05-29T05:29:45.744Z,5.95
2019-05-29T05:32:17.145Z,6.50
2019-05-29T05:34:49.053Z,6.30
2019-05-29T05:37:20.214Z,4.65
2019-05-29T05:39:51.376Z,9.10
2019-05-29T05:42:22.466Z,8.78
2019-05-29T05:44:53.662Z,4.37
2019-05-29T05:47:24.831Z,4.58
2019-05-29T05:49:55.943Z,4.47
2019-05-29T05:52:27.137Z,8.18
2019-05-29T05:54:58.236Z,4.45
2019-05-29T05:57:29.342Z,5.83
2019-05-29T06:00:00.531Z,3.85
2019-05-29T06:02:31.773Z,4.55
2019-05-29T06:05:03.077Z,4.80
2019-05-29T06:07:34.260Z,3.30
2019-05-29T06:10:07.823Z,5.33
2019-05-29T06:12:40.606Z,7.78
2019-05-29T06:15:13.102Z,4.58
2019-05-29T06:18:04.533Z,4.97
2019-05-29T06:20:17.240Z,3.42
2019-05-29T06:22:48.532Z,5.50
2019-05-29T06:25:20.238Z,6.58
2019-05-29T06:27:51.404Z,2.67
2019-05-29T06:30:22.711Z,4.50
2019-05-29T06:32:53.955Z,3.42
2019-05-29T06:35:25.095Z,2.02
2019-05-29T06:37:56.183Z,4.17
2019-05-29T06:40:33.891Z,5.00
2019-05-29T06:43:05.990Z,5.55
2019-05-29T06:45:37.896Z,2.67
2019-05-29T06:48:09.602Z,6.58
2019-05-29T06:50:41.527Z,7.12
2019-05-29T06:53:12.854Z,4.67
2019-05-29T06:55:44.105Z,5.62
2019-05-29T06:58:15.421Z,7.20
2019-05-29T07:00:46.881Z,5.37
2019-05-29T07:03:18.133Z,3.72
2019-05-29T07:05:51.380Z,6.17
2019-05-29T07:08:37.563Z,4.17
2019-05-29T07:10:55.149Z,6.37
2019-05-29T07:13:26.304Z,6.03
2019-05-29T07:15:57.472Z,5.58
2019-05-29T07:18:28.644Z,7.70
2019-05-29T07:20:59.771Z,7.58
2019-05-29T07:23:30.908Z,13.85
2019-05-29T07:26:03.054Z,2.37
2019-05-29T07:28:34.191Z,3.05
2019-05-29T07:31:05.392Z,9.08
2019-05-29T07:33:37.011Z,3.40
2019-05-29T07:36:08.365Z,5.42
2019-05-29T07:38:39.683Z,6.62
2019-05-29T07:41:10.866Z,5.72
2019-05-29T07:43:43.832Z,2.35
2019-05-29T07:46:15.063Z,2.22
2019-05-29T07:50:34.268Z,4.33
2019-05-29T07:51:23.231Z,3.25
2019-05-29T07:53:54.705Z,3.37
2019-05-29T07:56:27.192Z,3.35
2019-05-29T07:59:02.845Z,10.82
2019-05-29T08:01:31.412Z,4.67
2019-05-29T08:04:02.575Z,2.35
2019-05-29T08:06:33.915Z,5.90
2019-05-29T08:09:07.011Z,6.55
2019-05-29T08:11:39.379Z,2.95
2019-05-29T08:14:10.633Z,3.92
2019-05-29T08:16:42.059Z,2.22
2019-05-29T08:19:13.548Z,5.42
2019-05-29T08:21:57.925Z,4.25
2019-05-29T08:24:29.038Z,3.55
2019-05-29T08:27:00.156Z,5.22
2019-05-29T08:29:31.465Z,4.10
2019-05-29T08:32:02.552Z,4.75
2019-05-29T08:34:34.083Z,7.42
2019-05-29T08:37:07.446Z,6.65
2019-05-29T08:39:38.057Z,5.72
2019-05-29T08:42:22.421Z,4.17
2019-05-29T08:44:43.269Z,4.33
2019-05-29T08:47:14.632Z,5.05
2019-05-29T08:49:48.080Z,3.87
2019-05-29T08:52:18.533Z,3.60
2019-05-29T08:54:50.128Z,5.78
2019-05-29T08:57:21.375Z,3.65
2019-05-29T08:59:52.742Z,3.15
2019-05-29T09:02:23.930Z,3.33
2019-05-29T09:04:55.097Z,3.87
2019-05-29T09:07:26.566Z,6.42
2019-05-29T09:09:58.370Z,5.53
2019-05-29T09:12:30.116Z,4.50
2019-05-29T09:15:01.386Z,3.90
2019-05-29T09:17:34.595Z,3.87
2019-05-29T09:20:25.317Z,3.33
2019-05-29T09:22:41.045Z,5.83
2019-05-29T09:25:14.246Z,4.78
2019-05-29T09:27:45.679Z,5.35
2019-05-29T09:30:19.668Z,4.20
2019-05-29T09:32:52.754Z,4.08
2019-05-29T09:35:24.923Z,5.40
2019-05-29T09:37:57.294Z,2.47
2019-05-29T09:40:28.415Z,7.45
2019-05-29T09:42:59.542Z,4.60
2019-05-29T09:45:30.797Z,4.30
2019-05-29T09:48:02.021Z,5.30
2019-05-29T09:50:49.351Z,5.33
2019-05-29T09:53:06.221Z,3.02
2019-05-29T09:55:37.318Z,4.30
2019-05-29T09:58:09.471Z,5.35
2019-05-29T10:00:40.668Z,3.72
2019-05-29T10:03:11.776Z,3.20
2019-05-29T10:05:43.131Z,2.87
2019-05-29T10:08:16.997Z,3.77
2019-05-29T10:10:47.411Z,2.55
2019-05-29T10:13:18.725Z,3.50
2019-05-29T10:15:49.868Z,5.33
2019-05-29T10:18:32.116Z,5.42
2019-05-29T10:20:55.846Z,5.30
2019-05-29T10:23:26.763Z,2.20
2019-05-29T10:26:00.714Z,3.55
2019-05-29T10:28:49.331Z,2.40
2019-05-29T10:31:05.124Z,3.83
2019-05-29T10:33:37.631Z,5.85
2019-05-29T10:36:08.761Z,4.47
2019-05-29T10:38:39.938Z,5.87
2019-05-29T10:41:11.110Z,4.83
2019-05-29T10:43:42.922Z,3.12
2019-05-29T10:46:14.508Z,4.55
2019-05-29T10:48:49.362Z,4.12
2019-05-29T10:51:18.518Z,4.58
2019-05-29T10:53:51.896Z,5.50
2019-05-29T10:56:23.770Z,4.65
2019-05-29T10:58:59.600Z,5.35
2019-05-29T11:01:28.625Z,3.25
2019-05-29T11:03:59.787Z,3.35
2019-05-29T11:06:31.118Z,3.50
2019-05-29T11:09:02.365Z,3.72
2019-05-29T11:11:33.475Z,5.50
2019-05-29T11:14:04.750Z,3.15
2019-05-29T11:16:39.592Z,3.33
2019-05-29T11:19:08.689Z,3.22
2019-05-29T11:21:39.883Z,2.75
2019-05-29T11:24:10.995Z,2.83
2019-05-29T11:26:42.201Z,5.10
2019-05-29T11:29:14.401Z,4.60
2019-05-29T11:31:45.491Z,1.98
2019-05-29T11:34:18.439Z,2.65
2019-05-29T11:36:49.993Z,4.67
2019-05-29T11:39:21.294Z,3.00
2019-05-29T11:41:52.734Z,3.65
2019-05-29T11:44:24.007Z,3.77
2019-05-29T11:46:56.126Z,3.50
2019-05-29T11:49:27.437Z,4.17
2019-05-29T11:52:22.560Z,5.12
2019-05-29T11:54:36.902Z,2.95
2019-05-29T11:57:08.011Z,2.00
2019-05-29T11:59:39.166Z,3.37
2019-05-29T12:02:10.334Z,2.08
2019-05-29T12:04:41.485Z,3.60
2019-05-29T12:07:12.732Z,5.87
2019-05-29T12:09:43.859Z,3.47
2019-05-29T12:12:15.050Z,7.15
2019-05-29T12:15:00.710Z,8.55
2019-05-29T12:17:19.123Z,5.05
2019-05-29T12:19:50.334Z,1.62
2019-05-29T12:22:21.553Z,3.02
2019-05-29T12:24:54.391Z,2.90
2019-05-29T12:27:25.772Z,3.70
2019-05-29T12:29:57.038Z,2.08
2019-05-29T12:32:29.462Z,5.42
2019-05-29T12:35:01.124Z,2.98
2019-05-29T12:37:32.322Z,1.92
2019-05-29T12:40:04.906Z,2.17
2019-05-29T12:42:36.974Z,2.90
2019-05-29T12:45:09.015Z,3.62
2019-05-29T12:51:00.227Z,2.15
2019-05-29T12:53:34.021Z,4.70
2019-05-29T12:56:05.528Z,2.47
2019-05-29T12:58:36.698Z,1.85
2019-05-29T13:01:07.897Z,3.40
2019-05-29T13:03:45.029Z,3.12
2019-05-29T13:06:36.234Z,4.25
2019-05-29T13:09:08.887Z,5.45
2019-05-29T13:11:39.981Z,2.30
2019-05-29T13:14:11.125Z,5.17
2019-05-29T13:16:42.209Z,2.33
2019-05-29T13:19:13.359Z,2.75
2019-05-29T13:21:44.476Z,3.83
2019-05-29T13:24:15.640Z,3.15
2019-05-29T13:26:46.813Z,3.05
2019-05-29T13:29:17.883Z,2.42
2019-05-29T13:31:48.994Z,5.30
2019-05-29T13:34:20.180Z,3.30
2019-05-29T13:36:52.347Z,2.60
2019-05-29T13:39:23.498Z,1.77
2019-05-29T13:41:54.640Z,2.83
2019-05-29T13:44:26.238Z,3.65
2019-05-29T13:46:57.800Z,2.37
2019-05-29T13:49:29.013Z,1.75
2019-05-29T13:52:02.246Z,1.80
2019-05-29T13:54:33.020Z,3.75
2019-05-29T13:57:08.736Z,3.00
2019-05-29T13:59:41.416Z,2.83
2019-05-29T14:02:12.548Z,3.75
2019-05-29T14:04:45.776Z,2.40
2019-05-29T14:07:18.282Z,3.10
2019-05-29T14:09:49.417Z,3.08
2019-05-29T14:12:21.569Z,2.65
2019-05-29T14:14:52.881Z,3.70
2019-05-29T14:17:24.108Z,3.98
2019-05-29T14:19:55.279Z,2.92
2019-05-29T14:22:26.595Z,4.85
2019-05-29T14:24:58.731Z,3.00
2019-05-29T14:27:29.835Z,4.28
2019-05-29T14:30:01.504Z,2.98
2019-05-29T14:32:34.596Z,2.92
2019-05-29T14:35:10.864Z,2.05
2019-05-29T14:37:43.425Z,1.52
2019-05-29T14:40:16.193Z,3.25
2019-05-29T14:42:47.370Z,2.45
2019-05-29T14:45:18.793Z,2.90
2019-05-29T14:47:50.207Z,4.22
2019-05-29T14:50:21.287Z,3.55
2019-05-29T14:52:52.621Z,2.08
2019-05-29T14:55:24.685Z,2.75
2019-05-29T14:57:57.019Z,1.95
2019-05-29T15:00:28.870Z,3.58
2019-05-29T15:02:59.987Z,4.05
2019-05-29T15:05:33.145Z,4.08
2019-05-29T15:08:06.139Z,2.87
2019-05-29T15:10:37.357Z,2.85
2019-05-29T15:13:09.177Z,3.58
2019-05-29T15:15:42.474Z,5.15
2019-05-29T15:18:17.320Z,4.67
2019-05-29T15:20:46.398Z,2.22
2019-05-29T15:23:17.586Z,5.55
2019-05-29T15:25:50.210Z,2.83
2019-05-29T15:28:21.605Z,4.92
2019-05-29T15:30:54.209Z,2.05
2019-05-29T15:33:25.327Z,4.58
2019-05-29T15:35:56.719Z,2.75
2019-05-29T15:38:31.453Z,3.45
2019-05-29T15:41:03.588Z,4.40
2019-05-29T15:43:34.722Z,3.00
2019-05-29T15:49:37.118Z,3.58
2019-05-29T15:52:08.987Z,3.47
2019-05-29T15:54:40.320Z,6.40
2019-05-29T15:57:11.800Z,3.42
2019-05-29T15:59:43.293Z,1.72
2019-05-29T16:02:15.735Z,3.20
2019-05-29T16:04:48.384Z,2.62
2019-05-29T16:07:22.807Z,3.30
2019-05-29T16:09:56.387Z,5.42
2019-05-29T16:12:31.140Z,2.72
2019-05-29T16:15:04.615Z,3.05
2019-05-29T16:17:36.824Z,3.35
2019-05-29T16:20:12.339Z,2.35
2019-05-29T16:22:44.660Z,2.52
2019-05-29T16:25:17.079Z,2.75
2019-05-29T16:27:49.355Z,4.83
2019-05-29T16:30:21.895Z,4.10
2019-05-29T16:32:58.883Z,8.40
2019-05-29T16:35:31.914Z,4.17
2019-05-29T16:38:03.176Z,6.08
2019-05-29T16:40:34.704Z,4.87
2019-05-29T16:43:06.011Z,5.78
2019-05-29T16:45:38.702Z,5.05
2019-05-29T16:48:12.882Z,6.95
2019-05-29T16:50:46.568Z,4.95
2019-05-29T16:53:20.947Z,3.08
2019-05-29T16:55:54.350Z,7.30
2019-05-29T16:58:27.266Z,5.55
2019-05-29T17:00:59.198Z,5.70
2019-05-29T17:03:32.289Z,5.22
2019-05-29T17:06:04.650Z,3.80
2019-05-29T17:08:36.587Z,5.35
2019-05-29T17:11:08.697Z,4.95
2019-05-29T17:16:39.105Z,6.30
2019-05-29T17:19:11.034Z,5.90
2019-05-29T17:21:43.742Z,8.93
2019-05-29T17:24:16.645Z,4.80
2019-05-29T17:26:49.019Z,5.72
2019-05-29T17:29:22.876Z,6.28
2019-05-29T17:31:55.575Z,7.03
2019-05-29T17:34:29.298Z,5.37
2019-05-29T17:37:01.363Z,3.00
2019-05-29T17:39:34.539Z,6.80
2019-05-29T17:42:07.653Z,8.60
2019-05-29T17:44:41.065Z,7.72
2019-05-29T17:47:13.438Z,4.75
2019-05-29T17:49:46.280Z,7.47
2019-05-29T17:52:19.666Z,7.60
2019-05-29T17:54:51.756Z,8.88
2019-05-29T17:57:23.894Z,9.90
2019-05-29T17:59:55.734Z,11.43
2019-05-29T18:02:27.639Z,12.78
2019-05-29T18:05:00.548Z,16.48
2019-05-29T18:07:34.295Z,10.75
2019-05-29T18:10:08.249Z,11.93
2019-05-29T18:12:40.016Z,17.37
2019-05-29T18:15:14.150Z,19.00
2019-05-29T18:17:47.516Z,14.78
2019-05-29T18:20:19.956Z,17.02
2019-05-29T18:22:52.135Z,17.00
2019-05-29T18:25:24.139Z,16.97
2019-05-29T18:27:56.255Z,14.70
2019-05-29T18:30:28.831Z,12.98
2019-05-29T18:33:00.221Z,11.08
2019-05-29T18:35:31.492Z,15.83
2019-05-29T18:38:02.731Z,6.03
2019-05-29T18:40:36.189Z,17.23
2019-05-29T18:43:08.446Z,19.80
2019-05-29T18:45:39.471Z,12.10
2019-05-29T18:48:10.511Z,11.15
2019-05-29T18:50:44.258Z,10.95
2019-05-29T18:53:14.362Z,10.85
2019-05-29T18:55:45.386Z,12.43
2019-05-29T18:58:16.485Z,11.10
2019-05-29T19:00:47.564Z,13.53
2019-05-29T19:03:19.676Z,18.75
2019-05-29T19:05:50.743Z,25.02
2019-05-29T19:08:21.776Z,17.75
